Terminal Aerodrome Forecast
Issued by NWS

Home | Current Version | Previous Version | Text Only | Print | Product List | Glossary On
Versions: 1 2 3 4 5 6 7 8 9 10 11 12 13 14 15 16 17 18 19 20 21 22 23 24 25 26
000
FTUS41 KBUF 242100 AAB
TAFIAG
TAF AMD
KIAG 242100Z 2421/2518 24024G36KT 6SM -SHRA SCT020 OVC060
      TEMPO 2421/2422 22025G42KT 2SM -RA BKN020 OVC060
     FM242200 22027G51KT P6SM VCSH OVC050
     FM242300 23028G51KT P6SM OVC250
     FM250300 23025G40KT P6SM BKN040
     FM251200 23021G35KT P6SM VCSH BKN035=

USA.gov is the U.S. government's official web portal to all federal, state and local government web resources and services.